Time;durP1;ratioP1;P1;durP2;ratioP2;P2;SDS_P1;SDS_P2;PMS_P1;PMS_P2;Temp;Humidity;BMP_temperature;BMP_pressure;BME280_temperature;BME280_humidity;BME280_pressure;Samples;Min_cycle;Max_cycle;Signal;HPM_P1;HPM_P2
2022/11/27 00:02:18;;;;;;;63.05;39.55;;;;;;;-1.28;89.99;98776.50;10254820;28;20073;-57
2022/11/27 00:07:17;;;;;;;69.50;41.60;;;;;;;-1.20;89.76;98783.72;10257636;28;20070;-57
2022/11/27 00:12:16;;;;;;;60.53;35.45;;;;;;;-1.09;89.46;98786.13;10256941;28;20041;-57
2022/11/27 00:17:15;;;;;;;52.40;32.13;;;;;;;-0.98;89.81;98791.00;10256873;28;20045;-58
2022/11/27 00:22:14;;;;;;;52.05;31.42;;;;;;;-0.86;89.45;98787.53;10256521;28;20026;-57
2022/11/27 00:27:13;;;;;;;62.28;38.35;;;;;;;-0.75;88.85;98782.19;10256438;28;20034;-58
2022/11/27 00:32:12;;;;;;;79.63;44.45;;;;;;;-0.66;88.77;98787.84;10256546;28;20108;-57
2022/11/27 00:37:13;;;;;;;71.03;40.28;;;;;;;-0.63;88.86;98788.00;10256325;28;20130;-57
2022/11/27 00:42:12;;;;;;;80.43;40.88;;;;;;;-0.64;88.42;98792.25;10256050;28;20061;-57
2022/11/27 00:47:11;;;;;;;77.10;42.35;;;;;;;-0.60;88.43;98790.78;10256310;28;20034;-57
2022/11/27 00:52:10;;;;;;;88.18;46.47;;;;;;;-0.63;87.87;98790.56;10255562;28;20404;-57
2022/11/27 00:57:09;;;;;;;114.88;62.15;;;;;;;-0.78;88.64;98793.09;10255920;28;20106;-57
2022/11/27 01:02:08;;;;;;;89.30;52.15;;;;;;;-0.95;89.05;98797.16;10255089;28;20050;-57
2022/11/27 01:07:07;;;;;;;70.85;41.10;;;;;;;-1.04;88.30;98784.75;10255039;28;20452;-57
2022/11/27 01:12:06;;;;;;;72.88;40.33;;;;;;;-1.17;88.97;98786.44;10253657;28;20488;-57
2022/11/27 01:17:05;;;;;;;;;;;;;;;-1.14;89.18;98786.63;10255676;28;20085;-57
2022/11/27 01:22:04;;;;;;;67.60;39.20;;;;;;;-1.08;89.41;98782.78;10254347;28;20367;-57
2022/11/27 01:27:03;;;;;;;58.55;32.20;;;;;;;-1.04;89.29;98784.75;10254529;28;20108;-57
2022/11/27 01:32:02;;;;;;;55.08;31.90;;;;;;;-1.07;89.42;98779.47;10253833;28;20033;-57
2022/11/27 01:37:01;;;;;;;62.80;39.53;;;;;;;-1.02;89.35;98777.22;10254477;28;20070;-57
2022/11/27 01:42:00;;;;;;;96.35;48.15;;;;;;;-0.92;89.01;98771.88;10253892;28;20037;-57
2022/11/27 01:47:06;;;;;;;66.78;38.60;;;;;;;-0.70;88.95;98768.06;10253574;28;20073;-57
2022/11/27 01:52:10;;;;;;;58.53;34.88;;;;;;;-0.53;88.85;98767.41;10253915;28;20494;-57
2022/11/27 01:57:14;;;;;;;61.40;34.35;;;;;;;-0.38;88.24;98760.63;10253062;28;20500;-57
2022/11/27 02:02:14;;;;;;;61.08;36.15;;;;;;;-0.20;88.58;98760.81;10253143;28;20163;-57
2022/11/27 02:07:12;;;;;;;;;;;;;;;-0.06;88.02;98761.59;10253601;28;20076;-57
2022/11/27 02:12:26;;;;;;;54.85;36.35;;;;;;;0.04;88.06;98766.41;10252388;28;19914;-57
2022/11/27 02:17:44;;;;;;;60.65;37.30;;;;;;;0.17;87.71;98775.66;10252963;28;20058;-57
2022/11/27 02:23:15;;;;;;;65.10;37.33;;;;;;;0.26;87.42;98767.63;10251733;28;20086;-57
2022/11/27 02:28:13;;;;;;;;;;;;;;;0.24;87.46;98766.66;10252729;28;20081;-57
2022/11/27 02:33:18;;;;;;;66.78;40.35;;;;;;;0.23;87.38;98762.34;10251595;28;19918;-57
2022/11/27 02:38:28;;;;;;;67.25;40.60;;;;;;;0.30;87.18;98772.13;10251583;28;20066;-57
2022/11/27 02:43:37;;;;;;;57.85;35.08;;;;;;;0.31;86.91;98763.69;10251507;28;20066;-57
2022/11/27 02:48:42;;;;;;;64.80;35.67;;;;;;;0.27;86.81;98764.28;10251487;28;20070;-57
2022/11/27 02:53:52;;;;;;;55.10;33.53;;;;;;;0.26;87.00;98777.84;10250592;28;20066;-57
2022/11/27 02:58:56;;;;;;;49.35;30.17;;;;;;;0.24;86.94;98776.88;10250605;28;20342;-58
2022/11/27 03:03:57;;;;;;;61.88;39.53;;;;;;;0.13;87.11;98766.06;10250827;28;20084;-57
2022/11/27 03:09:02;;;;;;;54.60;30.95;;;;;;;-0.01;87.35;98774.63;10250104;28;20068;-57
2022/11/27 03:14:05;;;;;;;41.97;27.92;;;;;;;-0.29;87.17;98780.69;10250348;28;20061;-57
2022/11/27 03:19:11;;;;;;;43.78;27.23;;;;;;;-0.48;87.42;98786.38;10250015;28;20078;-58
2022/11/27 03:24:11;;;;;;;41.20;25.65;;;;;;;-0.53;88.37;98790.34;10250605;28;20069;-57
2022/11/27 03:29:15;;;;;;;42.30;25.80;;;;;;;-0.54;88.52;98783.47;10249912;28;20070;-58
2022/11/27 03:34:15;;;;;;;39.95;24.52;;;;;;;-0.41;88.48;98785.97;10249022;28;20066;-58
2022/11/27 03:39:14;;;;;;;39.33;24.13;;;;;;;-0.24;88.71;98786.06;10250492;28;20508;-57
2022/11/27 03:44:13;;;;;;;;;;;;;;;-0.11;88.82;98778.31;10250168;28;20462;-57
2022/11/27 03:49:27;;;;;;;47.63;26.55;;;;;;;-0.07;88.02;98793.00;10249547;28;20284;-57
2022/11/27 03:55:11;;;;;;;49.28;31.10;;;;;;;-0.11;88.10;98780.88;10249263;28;20074;-58
2022/11/27 04:00:11;;;;;;;47.22;31.27;;;;;;;-0.07;88.44;98774.25;10232394;28;20073;-56
2022/11/27 04:05:11;;;;;;;48.42;31.58;;;;;;;0.03;88.45;98777.44;10249368;28;20515;-57
2022/11/27 04:10:11;;;;;;;47.05;28.85;;;;;;;0.17;88.44;98769.66;10249630;28;20062;-57
2022/11/27 04:15:11;;;;;;;81.85;45.33;;;;;;;0.22;87.88;98766.59;10249880;28;20065;-57
2022/11/27 04:20:13;;;;;;;49.13;32.15;;;;;;;0.28;87.72;98763.47;10249564;28;20065;-57
2022/11/27 04:25:12;;;;;;;53.45;32.28;;;;;;;0.33;87.79;98758.63;10249168;28;20244;-57
2022/11/27 04:30:11;;;;;;;48.92;31.52;;;;;;;0.36;87.57;98763.91;10248805;28;20022;-57
2022/11/27 04:35:10;;;;;;;62.70;36.95;;;;;;;0.32;87.41;98762.88;10249263;28;20062;-57
2022/11/27 04:40:09;;;;;;;82.97;45.90;;;;;;;0.26;87.37;98765.06;10248650;28;20026;-57
2022/11/27 04:45:09;;;;;;;86.28;51.38;;;;;;;0.16;87.33;98766.22;10249578;28;20062;-57
2022/11/27 04:50:09;;;;;;;63.10;38.47;;;;;;;0.02;86.97;98762.91;10255643;28;20566;-57
2022/11/27 04:55:08;;;;;;;50.20;31.00;;;;;;;-0.14;87.61;98767.06;10255736;28;20137;-57
2022/11/27 05:00:07;;;;;;;;;;;;;;;-0.28;87.78;98768.81;10249802;28;20069;-58
2022/11/27 05:05:07;;;;;;;66.65;38.72;;;;;;;-0.37;87.61;98774.25;10252924;28;20767;-57
2022/11/27 05:10:07;;;;;;;74.05;41.50;;;;;;;-0.39;87.75;98778.41;10253266;28;20066;-57
2022/11/27 05:15:07;;;;;;;71.88;41.00;;;;;;;-0.45;87.34;98789.09;10253752;28;20058;-57
2022/11/27 05:20:06;;;;;;;95.45;50.05;;;;;;;-0.48;87.81;98786.38;10252969;28;20057;-57
2022/11/27 05:25:05;;;;;;;80.88;45.50;;;;;;;-0.54;87.74;98785.13;10252019;28;20471;-57
2022/11/27 05:30:05;;;;;;;89.15;52.92;;;;;;;-0.60;87.69;98784.00;10253024;28;20066;-57
2022/11/27 05:35:04;;;;;;;98.07;55.58;;;;;;;-0.65;87.67;98799.78;10252557;28;20531;-57
2022/11/27 05:40:05;;;;;;;105.38;60.60;;;;;;;-0.67;87.70;98803.94;10252472;28;20064;-57
2022/11/27 05:45:04;;;;;;;96.82;53.20;;;;;;;-0.67;87.67;98797.16;10251345;28;20058;-57
2022/11/27 05:50:03;;;;;;;81.65;49.08;;;;;;;-0.66;87.84;98800.59;10250229;28;20062;-57
2022/11/27 05:55:03;;;;;;;85.70;48.05;;;;;;;-0.64;87.90;98809.22;10250438;28;20073;-57
2022/11/27 06:00:02;;;;;;;;;;;;;;;-0.56;87.82;98807.97;10251965;28;20065;-57
2022/11/27 06:05:01;;;;;;;103.70;59.73;;;;;;;-0.54;88.64;98803.84;10252852;28;19956;-57
2022/11/27 06:10:00;;;;;;;98.78;54.92;;;;;;;-0.48;88.13;98808.47;10252435;28;20270;-57
2022/11/27 06:14:59;;;;;;;105.88;59.28;;;;;;;-0.45;89.24;98794.22;10252442;28;20065;-56
2022/11/27 06:19:58;;;;;;;114.93;66.78;;;;;;;-0.38;89.37;98805.66;10252122;28;20053;-56
2022/11/27 06:24:57;;;;;;;113.47;69.28;;;;;;;-0.23;88.73;98815.84;10251656;28;20030;-57
2022/11/27 06:29:56;;;;;;;126.82;76.18;;;;;;;-0.18;89.30;98815.34;10251581;28;20032;-56
2022/11/27 06:34:56;;;;;;;84.50;53.05;;;;;;;-0.06;89.32;98810.09;10251966;28;20137;-56
2022/11/27 06:39:55;;;;;;;85.35;52.40;;;;;;;-0.24;89.66;98809.88;10251314;28;20042;-56
2022/11/27 06:44:55;;;;;;;93.00;60.45;;;;;;;-0.19;89.85;98816.13;10250306;28;20504;-58
2022/11/27 06:49:54;;;;;;;68.70;42.10;;;;;;;-0.19;89.84;98812.72;10248962;28;20601;-57
2022/11/27 06:54:53;;;;;;;116.93;52.97;;;;;;;-0.12;89.73;98814.81;10248078;28;20607;-58
2022/11/27 06:59:52;;;;;;;57.55;36.67;;;;;;;-0.24;90.07;98826.88;10247600;28;20491;-58
2022/11/27 07:04:51;;;;;;;59.58;37.15;;;;;;;-0.15;90.15;98824.84;10250326;28;20078;-57
2022/11/27 07:09:49;;;;;;;71.65;45.17;;;;;;;0.02;89.96;98813.06;10249845;28;20054;-57
2022/11/27 07:14:48;;;;;;;64.35;40.72;;;;;;;0.22;90.10;98814.22;10250099;28;20451;-57
2022/11/27 07:19:47;;;;;;;61.00;39.17;;;;;;;0.56;89.03;98816.97;10250366;28;20109;-58
2022/11/27 07:24:46;;;;;;;56.67;37.97;;;;;;;0.73;88.46;98823.00;10250023;28;20030;-57
2022/11/27 07:29:45;;;;;;;64.75;44.22;;;;;;;0.86;88.26;98819.44;10264902;28;20042;-57
2022/11/27 07:34:44;;;;;;;66.55;43.75;;;;;;;1.06;88.21;98823.06;10249808;28;20121;-57
2022/11/27 07:39:43;;;;;;;71.32;43.95;;;;;;;1.29;87.02;98816.59;10249984;28;20520;-58
2022/11/27 07:44:42;;;;;;;69.45;43.90;;;;;;;1.40;86.55;98809.50;10249628;28;20654;-57
2022/11/27 07:49:41;;;;;;;78.47;53.28;;;;;;;1.52;86.41;98807.59;10250076;28;20389;-58
2022/11/27 07:54:40;;;;;;;80.60;55.10;;;;;;;1.69;86.03;98814.47;10249756;28;20036;-57
2022/11/27 07:59:39;;;;;;;84.75;58.10;;;;;;;1.87;85.80;98811.06;10249409;28;20503;-56
2022/11/27 08:04:38;;;;;;;118.03;75.90;;;;;;;2.04;85.25;98802.53;10249383;28;20053;-57
2022/11/27 08:09:38;;;;;;;129.40;77.53;;;;;;;2.29;84.43;98813.97;10248989;28;20077;-58
2022/11/27 08:14:37;;;;;;;152.25;94.78;;;;;;;2.48;84.36;98806.38;10248931;28;20065;-58
2022/11/27 08:19:36;;;;;;;109.65;72.22;;;;;;;2.69;83.21;98806.50;10249564;28;20045;-58
2022/11/27 08:24:37;;;;;;;107.05;71.20;;;;;;;2.79;82.29;98807.81;10256578;28;20037;-58
2022/11/27 08:29:37;;;;;;;104.90;72.95;;;;;;;2.91;81.80;98793.00;10256724;28;20073;-57
2022/11/27 08:34:36;;;;;;;104.88;69.35;;;;;;;3.05;80.46;98800.44;10256270;28;20523;-57
2022/11/27 08:39:35;;;;;;;186.57;116.38;;;;;;;3.19;80.17;98807.06;10256210;28;20454;-57
2022/11/27 08:44:34;;;;;;;173.45;116.03;;;;;;;3.28;79.18;98797.22;10256473;28;20038;-58
2022/11/27 08:49:33;;;;;;;117.28;77.55;;;;;;;3.19;78.46;98787.44;10255619;28;20442;-58
2022/11/27 08:54:32;;;;;;;95.43;65.03;;;;;;;3.14;77.90;98798.28;10255512;28;20035;-57
2022/11/27 08:59:31;;;;;;;88.72;59.67;;;;;;;3.21;77.36;98788.41;10255576;28;20036;-58
2022/11/27 09:04:30;;;;;;;104.30;73.80;;;;;;;3.28;77.65;98788.66;10255061;28;20054;-57
2022/11/27 09:09:29;;;;;;;123.18;88.72;;;;;;;3.34;78.03;98788.94;10254856;28;20488;-57
2022/11/27 09:14:27;;;;;;;82.65;57.65;;;;;;;3.53;77.66;98791.47;10254766;28;20034;-57
2022/11/27 09:19:26;;;;;;;71.57;49.28;;;;;;;3.70;77.57;98779.38;10255042;28;20117;-58
2022/11/27 09:24:25;;;;;;;73.97;52.78;;;;;;;3.84;76.91;98780.81;10254839;28;20076;-58
2022/11/27 09:29:24;;;;;;;67.05;47.80;;;;;;;4.08;76.14;98772.41;10254098;28;20038;-58
2022/11/27 09:34:23;;;;;;;54.17;37.47;;;;;;;4.30;76.01;98763.88;10253857;28;20122;-58
2022/11/27 09:39:25;;;;;;;46.63;32.97;;;;;;;4.67;74.69;98761.03;10254578;28;20065;-58
2022/11/27 09:44:47;;;;;;;53.22;36.90;;;;;;;4.99;73.23;98753.69;10254091;28;20483;-58
2022/11/27 09:50:11;;;;;;;53.35;38.75;;;;;;;5.42;72.42;98749.25;10253642;28;20484;-57
2022/11/27 09:55:17;;;;;;;42.28;30.38;;;;;;;5.70;71.20;98749.38;10253454;28;20514;-57
2022/11/27 10:00:18;;;;;;;50.03;35.80;;;;;;;5.80;69.13;98737.66;10252899;28;20531;-58
2022/11/27 10:05:28;;;;;;;57.75;39.55;;;;;;;5.81;68.34;98718.81;10252932;28;20504;-57
2022/11/27 10:10:35;;;;;;;52.53;37.75;;;;;;;5.78;68.32;98703.25;10252982;28;20085;-57
2022/11/27 10:16:03;;;;;;;47.72;35.10;;;;;;;6.00;69.60;98706.53;10251013;28;20081;-57
2022/11/27 10:21:13;;;;;;;44.03;29.10;;;;;;;6.22;67.99;98706.41;10250860;28;20077;-58
2022/11/27 10:26:17;;;;;;;;;;;;;;;6.45;67.11;98693.38;10253135;28;20061;-58
2022/11/27 10:31:40;;;;;;;19.92;13.38;;;;;;;6.73;64.94;98680.44;10252756;28;19960;-58
2022/11/27 10:36:44;;;;;;;18.73;12.27;;;;;;;6.75;62.47;98665.91;10251627;28;20495;-58
2022/11/27 10:41:58;;;;;;;19.15;12.02;;;;;;;6.73;61.79;98664.97;10252511;28;20062;-58
2022/11/27 10:47:02;;;;;;;33.78;23.38;;;;;;;6.98;61.87;98665.66;10251616;28;20189;-57
2022/11/27 10:52:01;;;;;;;23.55;16.38;;;;;;;7.18;61.03;98659.34;10251223;28;20062;-57
2022/11/27 10:56:59;;;;;;;24.10;15.13;;;;;;;7.25;59.62;98656.09;10250906;28;20132;-57
2022/11/27 11:01:59;;;;;;;32.60;22.80;;;;;;;7.36;59.52;98647.78;10250881;28;20468;-58
2022/11/27 11:07:00;;;;;;;15.77;10.38;;;;;;;7.54;60.00;98649.97;10250714;28;20065;-57
2022/11/27 11:12:14;;;;;;;17.73;12.57;;;;;;;7.75;60.13;98639.28;10265186;28;20089;-57
2022/11/27 11:17:17;;;;;;;15.35;10.73;;;;;;;8.01;59.34;98635.63;10250334;28;20359;-57
2022/11/27 11:22:16;;;;;;;15.73;9.95;;;;;;;7.87;58.04;98631.81;10251172;28;20519;-57
2022/11/27 11:27:38;;;;;;;21.85;15.00;;;;;;;7.77;58.85;98619.53;10250483;28;20076;-58
2022/11/27 11:32:39;;;;;;;17.88;12.45;;;;;;;7.64;58.09;98623.53;10249027;28;20070;-57
2022/11/27 11:37:44;;;;;;;14.20;9.98;;;;;;;7.36;58.64;98611.63;10250216;28;20452;-58
2022/11/27 11:42:56;;;;;;;175.60;82.30;;;;;;;7.51;60.33;98606.84;10249765;28;20089;-57
2022/11/27 11:47:58;;;;;;;18.58;12.05;;;;;;;7.52;59.56;98600.88;10249597;28;20066;-56
2022/11/27 11:53:27;;;;;;;15.43;9.82;;;;;;;7.34;59.16;98598.66;10249459;28;20538;-58
2022/11/27 11:58:26;;;;;;;18.60;11.60;;;;;;;7.40;60.21;98592.78;10255989;28;20069;-57
2022/11/27 12:03:59;;;;;;;41.17;24.52;;;;;;;7.48;60.46;98588.72;10257145;28;20046;-57
2022/11/27 12:09:09;;;;;;;15.13;9.55;;;;;;;7.66;60.99;98591.75;10247159;28;20088;-58
2022/11/27 12:14:20;;;;;;;39.72;20.50;;;;;;;7.72;60.98;98590.13;10257290;28;20054;-57
2022/11/27 12:19:31;;;;;;;16.35;11.05;;;;;;;7.75;60.92;98572.97;10256927;28;20526;-58
2022/11/27 12:24:48;;;;;;;22.80;14.95;;;;;;;7.76;60.42;98576.47;10256859;28;20050;-57
2022/11/27 12:30:14;;;;;;;40.70;26.48;;;;;;;7.62;59.10;98568.38;10256361;28;20076;-57
2022/11/27 12:35:19;;;;;;;23.58;15.07;;;;;;;7.64;59.52;98561.56;10253001;28;20069;-57
2022/11/27 12:40:49;;;;;;;19.33;12.85;;;;;;;7.69;60.19;98570.28;10254600;28;20080;-58
2022/11/27 12:45:50;;;;;;;26.00;17.23;;;;;;;7.66;60.16;98567.59;10254263;28;20074;-58
2022/11/27 12:50:54;;;;;;;16.75;11.75;;;;;;;7.65;60.19;98568.44;10255101;28;20065;-57
2022/11/27 12:56:15;;;;;;;17.65;10.38;;;;;;;7.56;59.74;98570.81;10253873;28;20394;-58
2022/11/27 13:01:24;;;;;;;17.27;12.32;;;;;;;7.50;60.10;98566.38;10215090;28;20070;-57
2022/11/27 13:06:27;;;;;;;18.50;12.55;;;;;;;7.44;59.59;98561.06;10214471;28;20066;-58
2022/11/27 13:11:31;;;;;;;14.65;9.90;;;;;;;7.36;58.79;98554.81;10214049;28;20066;-56
2022/11/27 13:16:44;;;;;;;17.70;11.70;;;;;;;7.27;59.33;98557.16;10213264;28;20078;-58
2022/11/27 13:21:45;;;;;;;16.30;11.60;;;;;;;7.18;59.93;98563.84;10214902;28;20518;-58
2022/11/27 13:27:08;;;;;;;17.58;12.02;;;;;;;7.17;60.10;98554.34;10213570;28;20540;-58
2022/11/27 13:32:13;;;;;;;21.95;12.85;;;;;;;7.15;61.42;98556.03;10251769;28;20468;-57
2022/11/27 13:37:33;;;;;;;20.50;13.48;;;;;;;7.12;61.82;98550.75;10252271;28;20489;-58
2022/11/27 13:42:35;;;;;;;24.45;17.20;;;;;;;7.09;61.46;98555.84;10252662;28;20060;-57
2022/11/27 13:47:42;;;;;;;25.75;18.67;;;;;;;7.05;61.60;98554.00;10249981;28;20073;-58
2022/11/27 13:53:02;;;;;;;28.95;19.67;;;;;;;6.99;62.37;98553.88;10252291;28;20088;-58
2022/11/27 13:58:03;;;;;;;30.17;19.95;;;;;;;6.88;62.47;98550.13;10251623;28;20100;-57
2022/11/27 14:03:03;;;;;;;32.88;21.83;;;;;;;6.80;62.00;98544.78;10250354;28;20088;-58
2022/11/27 14:08:02;;;;;;;41.83;24.90;;;;;;;6.69;62.64;98552.22;10248524;28;20441;-58
2022/11/27 14:13:04;;;;;;;44.17;28.67;;;;;;;6.61;63.53;98546.00;10248944;28;20066;-58
2022/11/27 14:18:05;;;;;;;31.83;22.10;;;;;;;6.57;62.40;98544.16;10248828;28;20076;-58
2022/11/27 14:23:04;;;;;;;29.45;19.50;;;;;;;6.50;62.58;98548.25;10252226;28;20078;-58
2022/11/27 14:28:05;;;;;;;37.50;25.02;;;;;;;6.42;63.52;98543.72;10252671;28;20078;-57
2022/11/27 14:33:14;;;;;;;36.50;25.25;;;;;;;6.35;63.31;98546.16;10250765;28;20069;-57
2022/11/27 14:38:14;;;;;;;34.57;23.60;;;;;;;6.30;63.97;98544.25;10252261;28;20073;-57
2022/11/27 14:43:13;;;;;;;38.20;24.13;;;;;;;6.24;64.09;98547.53;10251611;28;20058;-58
2022/11/27 14:48:22;;;;;;;30.98;21.17;;;;;;;6.18;63.97;98544.75;10251650;28;20156;-57
2022/11/27 14:53:25;;;;;;;36.03;25.13;;;;;;;5.93;64.70;98556.94;10251077;28;20069;-58
2022/11/27 14:58:27;;;;;;;28.17;19.90;;;;;;;5.62;67.92;98549.09;10250707;28;20077;-57
2022/11/27 15:03:26;;;;;;;33.28;22.88;;;;;;;5.47;69.37;98547.78;10250750;28;20524;-57
2022/11/27 15:08:27;;;;;;;27.17;18.38;;;;;;;5.30;71.01;98561.81;10250798;28;20375;-57
2022/11/27 15:13:32;;;;;;;36.35;25.30;;;;;;;5.32;70.89;98560.13;10251136;28;20073;-57
2022/11/27 15:18:34;;;;;;;49.88;34.13;;;;;;;5.21;72.11;98564.09;10250743;28;20512;-57
2022/11/27 15:23:34;;;;;;;45.33;30.42;;;;;;;5.12;73.02;98562.94;10250718;28;20072;-57
2022/11/27 15:28:49;;;;;;;55.80;37.13;;;;;;;5.18;73.25;98571.69;10250221;28;20068;-57
2022/11/27 15:34:00;;;;;;;51.55;34.58;;;;;;;5.15;73.96;98566.44;10249383;28;20081;-57
2022/11/27 15:39:36;;;;;;;49.10;32.80;;;;;;;5.10;74.94;98574.88;10250200;28;20077;-57
2022/11/27 15:44:37;;;;;;;40.75;28.55;;;;;;;5.08;75.30;98570.50;10245579;28;20073;-57
2022/11/27 15:49:36;;;;;;;27.48;16.88;;;;;;;4.97;76.74;98582.13;10250449;28;20078;-57
2022/11/27 15:54:35;;;;;;;30.17;19.67;;;;;;;4.89;77.22;98576.69;10249498;28;20036;-57
2022/11/27 15:59:34;;;;;;;32.08;20.80;;;;;;;4.79;78.39;98566.91;10250059;28;20466;-57
2022/11/27 16:04:33;;;;;;;43.22;24.08;;;;;;;4.77;78.83;98573.69;10249152;28;20042;-57
2022/11/27 16:09:32;;;;;;;50.47;29.27;;;;;;;4.76;79.47;98564.22;10249183;28;20096;-57
2022/11/27 16:14:31;;;;;;;47.00;28.20;;;;;;;4.75;80.21;98565.03;10249448;28;20472;-57
2022/11/27 16:19:30;;;;;;;47.17;29.90;;;;;;;4.63;81.10;98570.63;10249687;28;20468;-57
2022/11/27 16:24:29;;;;;;;45.83;26.73;;;;;;;4.61;81.37;98570.56;10263908;28;20512;-57
2022/11/27 16:29:28;;;;;;;35.95;23.70;;;;;;;4.42;83.15;98570.72;10249743;28;20077;-57
2022/11/27 16:34:27;;;;;;;42.30;25.60;;;;;;;4.34;83.16;98575.59;10249271;28;20081;-57
2022/11/27 16:39:26;;;;;;;50.92;33.40;;;;;;;4.32;83.38;98566.09;10249186;28;20045;-57
2022/11/27 16:44:25;;;;;;;46.78;28.38;;;;;;;4.33;84.19;98567.81;10254161;28;20993;-57
2022/11/27 16:49:24;;;;;;;39.08;24.17;;;;;;;4.26;84.99;98582.13;10255969;28;20442;-57
2022/11/27 16:54:23;;;;;;;33.60;21.58;;;;;;;4.25;85.05;98578.69;10255891;28;20030;-59
2022/11/27 16:59:22;;;;;;;36.28;21.80;;;;;;;4.26;85.26;98583.00;10255680;28;20033;-57
2022/11/27 17:04:21;;;;;;;39.75;24.00;;;;;;;4.24;85.39;98584.66;10255473;28;20081;-57
2022/11/27 17:09:23;;;;;;;40.63;25.30;;;;;;;4.36;85.73;98580.78;10255145;28;20101;-57
2022/11/27 17:14:22;;;;;;;53.00;35.35;;;;;;;4.41;86.08;98571.56;10255430;28;20082;-57
2022/11/27 17:19:22;;;;;;;39.78;26.10;;;;;;;4.40;86.97;98572.38;10255340;28;20081;-57
2022/11/27 17:24:23;;;;;;;53.15;34.17;;;;;;;4.26;87.75;98580.44;10254546;28;20068;-56
2022/11/27 17:29:22;;;;;;;52.08;33.90;;;;;;;4.25;88.05;98582.97;10254963;28;20081;-56
2022/11/27 17:34:21;;;;;;;50.17;33.92;;;;;;;4.27;88.47;98578.78;10254608;28;20041;-56
2022/11/27 17:39:20;;;;;;;51.75;33.47;;;;;;;4.25;88.63;98573.56;10254493;28;20053;-56
2022/11/27 17:44:19;;;;;;;47.53;29.48;;;;;;;4.25;89.27;98576.13;10253704;28;20023;-57
2022/11/27 17:49:20;;;;;;;119.57;66.07;;;;;;;4.18;89.46;98579.28;10254058;28;20073;-57
2022/11/27 17:54:19;;;;;;;120.50;76.43;;;;;;;4.13;89.60;98567.97;10252624;28;20076;-57
2022/11/27 17:59:19;;;;;;;285.00;155.05;;;;;;;3.96;90.51;98579.28;10253864;28;20086;-57
2022/11/27 18:04:19;;;;;;;231.27;135.02;;;;;;;3.92;90.69;98569.75;10253151;28;20086;-57
2022/11/27 18:09:18;;;;;;;238.15;137.23;;;;;;;3.96;90.81;98566.44;10254350;28;20073;-58
2022/11/27 18:14:17;;;;;;;106.35;62.95;;;;;;;3.89;91.14;98557.63;10253188;28;20046;-57
2022/11/27 18:19:16;;;;;;;92.63;52.35;;;;;;;3.83;91.44;98555.72;10253640;28;20478;-58
2022/11/27 18:24:15;;;;;;;179.57;73.68;;;;;;;3.71;91.12;98575.78;10252727;28;20527;-56
2022/11/27 18:29:14;;;;;;;86.47;44.13;;;;;;;3.49;91.25;98566.34;10248075;28;20046;-56
2022/11/27 18:34:13;;;;;;;90.80;51.53;;;;;;;3.37;91.83;98569.28;10250301;28;20096;-57
2022/11/27 18:39:12;;;;;;;53.83;33.13;;;;;;;3.31;92.04;98563.94;10233248;28;20042;-56
2022/11/27 18:44:11;;;;;;;49.45;28.52;;;;;;;3.34;92.08;98565.75;10249675;28;20491;-57
2022/11/27 18:49:10;;;;;;;43.13;25.42;;;;;;;3.37;92.32;98556.47;10250602;28;20487;-58
2022/11/27 18:54:09;;;;;;;;;;;;;;;3.36;91.91;98559.00;10250627;28;20066;-58
2022/11/27 18:59:08;;;;;;;82.85;47.55;;;;;;;3.35;92.53;98555.53;10248885;28;19921;-58
2022/11/27 19:04:07;;;;;;;70.18;40.55;;;;;;;3.32;92.57;98555.41;10248709;28;20039;-58
2022/11/27 19:09:06;;;;;;;80.50;48.50;;;;;;;3.18;92.52;98559.09;10249703;28;20108;-58
2022/11/27 19:14:06;;;;;;;50.63;33.15;;;;;;;3.06;92.41;98551.78;10247572;28;20074;-58
2022/11/27 19:19:06;;;;;;;83.60;49.90;;;;;;;3.00;92.19;98552.41;10248648;28;20066;-58
2022/11/27 19:24:06;;;;;;;61.15;37.72;;;;;;;2.98;92.65;98558.25;10249550;28;20073;-57
2022/11/27 19:29:07;;;;;;;77.88;50.35;;;;;;;3.00;91.83;98546.38;10247987;28;20069;-58
2022/11/27 19:34:06;;;;;;;74.13;50.15;;;;;;;2.79;92.43;98546.38;10249375;28;20543;-58
2022/11/27 19:39:10;;;;;;;42.55;28.55;;;;;;;2.79;92.37;98551.50;10245152;28;20511;-58
2022/11/27 19:44:11;;;;;;;47.72;30.75;;;;;;;2.79;92.70;98552.41;10247936;28;20074;-58
2022/11/27 19:49:15;;;;;;;97.45;57.25;;;;;;;2.81;92.92;98547.31;10248269;28;20074;-58
2022/11/27 19:54:15;;;;;;;44.10;27.08;;;;;;;2.89;92.15;98561.34;10248798;28;20492;-58
2022/11/27 19:59:14;;;;;;;40.33;26.38;;;;;;;2.85;92.44;98551.75;10247996;28;20104;-58
2022/11/27 20:04:14;;;;;;;44.13;27.50;;;;;;;2.78;92.74;98542.06;10248179;28;20047;-59
2022/11/27 20:09:13;;;;;;;41.58;26.15;;;;;;;2.76;92.61;98547.13;10244332;28;20074;-56
2022/11/27 20:14:12;;;;;;;62.28;39.75;;;;;;;2.73;93.10;98541.88;10247855;28;20101;-56
2022/11/27 20:19:11;;;;;;;75.60;41.47;;;;;;;2.78;92.28;98548.06;10253449;28;20085;-57
2022/11/27 20:24:10;;;;;;;78.97;41.45;;;;;;;2.78;93.03;98555.75;10255636;28;20079;-57
2022/11/27 20:29:12;;;;;;;;;;;;;;;2.77;92.87;98548.00;10255148;28;20070;-58
2022/11/27 20:34:20;;;;;;;42.05;25.17;;;;;;;2.74;93.08;98553.00;10255278;28;20009;-57
2022/11/27 20:39:19;;;;;;;53.40;33.25;;;;;;;2.68;93.06;98543.38;10251367;28;20711;-57
2022/11/27 20:44:18;;;;;;;38.75;23.33;;;;;;;2.71;92.74;98534.94;10255296;28;20070;-58
2022/11/27 20:49:18;;;;;;;46.90;29.33;;;;;;;2.81;93.06;98544.75;10255474;28;20093;-58
2022/11/27 20:54:17;;;;;;;;;;;;;;;2.72;92.78;98539.22;10255253;28;20512;-57
2022/11/27 20:59:16;;;;;;;40.38;24.30;;;;;;;2.80;93.11;98541.31;10253433;28;20375;-57
2022/11/27 21:04:22;;;;;;;59.38;43.30;;;;;;;2.70;92.45;98523.81;10255017;28;20088;-58
2022/11/27 21:09:21;;;;;;;33.10;19.85;;;;;;;2.82;92.21;98538.81;10250469;28;20486;-57
2022/11/27 21:14:20;;;;;;;34.10;20.50;;;;;;;2.78;92.63;98536.94;10254027;28;20078;-57
2022/11/27 21:19:24;;;;;;;29.25;19.02;;;;;;;2.75;92.92;98519.75;10253835;28;20042;-58
2022/11/27 21:24:27;;;;;;;28.10;17.38;;;;;;;2.66;92.55;98521.91;10253534;28;20078;-57
2022/11/27 21:29:26;;;;;;;30.50;19.42;;;;;;;2.74;92.22;98528.22;10251255;28;20088;-57
2022/11/27 21:34:25;;;;;;;33.10;18.65;;;;;;;2.80;92.30;98523.38;10253374;28;20088;-57
2022/11/27 21:39:24;;;;;;;30.80;18.65;;;;;;;2.87;92.74;98516.81;10253745;28;20046;-58
2022/11/27 21:44:24;;;;;;;32.25;19.40;;;;;;;2.89;92.29;98517.75;10253892;28;20477;-58
2022/11/27 21:49:23;;;;;;;42.70;24.73;;;;;;;2.85;92.48;98522.69;10254563;28;20100;-58
2022/11/27 21:54:22;;;;;;;37.22;21.42;;;;;;;2.84;92.33;98519.25;10253450;28;20485;-58
2022/11/27 21:59:20;;;;;;;49.38;27.83;;;;;;;2.87;92.65;98515.94;10253991;28;20022;-58
2022/11/27 22:04:20;;;;;;;31.75;18.25;;;;;;;2.75;92.65;98514.63;10253159;28;20049;-58
2022/11/27 22:09:19;;;;;;;35.78;19.92;;;;;;;2.67;92.97;98509.97;10253889;28;20065;-57
2022/11/27 22:14:18;;;;;;;31.33;16.85;;;;;;;2.68;93.08;98512.63;10252988;28;20026;-58
2022/11/27 22:19:16;;;;;;;31.85;18.00;;;;;;;2.68;92.83;98506.63;10252975;28;20415;-58
2022/11/27 22:24:16;;;;;;;51.22;26.88;;;;;;;2.67;93.16;98490.34;10252750;28;20026;-58
2022/11/27 22:29:15;;;;;;;42.30;25.60;;;;;;;2.64;92.97;98497.03;10267569;28;20438;-57
2022/11/27 22:34:14;;;;;;;;;;;;;;;2.67;92.84;98489.47;10252814;28;20487;-57
2022/11/27 22:39:13;;;;;;;28.92;16.42;;;;;;;2.63;92.83;98482.47;10251805;28;20383;-56
2022/11/27 22:44:17;;;;;;;25.77;15.98;;;;;;;2.66;93.02;98485.19;10251948;28;20459;-57
2022/11/27 22:49:17;;;;;;;26.50;16.33;;;;;;;2.64;93.08;98485.09;10251553;28;20504;-56
2022/11/27 22:54:16;;;;;;;24.83;16.20;;;;;;;2.62;92.99;98485.84;10251591;28;20496;-57
2022/11/27 22:59:15;;;;;;;24.58;15.38;;;;;;;2.61;93.36;98479.00;10251252;28;20104;-56
2022/11/27 23:04:14;;;;;;;24.05;14.40;;;;;;;2.58;93.11;98467.78;10249603;28;20089;-56
2022/11/27 23:09:16;;;;;;;23.92;13.60;;;;;;;2.58;93.07;98470.34;10248372;28;20081;-57